x

Point Arguello, Ca (ptgc1) Weather Station

8:00am - Mon 25th Jul 2016 All times are PDT. -7 hours from GMT.

  • Wind
    11mph, 13mph gusts
  • Air Temp 52°f
  • Sea Pressure 1015.3mb
  • Point Arguello, Ca
  • Point Arguello, Ca

More Historic Weather Station data

Upgrade to MSW Pro to gain access to the past 30 days of data for over 8000 Wavebouys and Weather Stations around the globe.

Join Pro

Comparision Forecast

View Surf forecast
   
Mon 07/25 8:00am 11 13 mph 1015.3mb 52f
7:00am 10 11 mph 1015.1mb 51f
6:00am 9 10 mph 1014.8mb 51f
5:00am 10
mph
1014.3mb 51f
4:00am 14
mph
1014mb 51f
3:00am 17 20 mph 1013.5mb 51f
2:00am 21 23 mph 1013.4mb 51f
1:00am 16 17 mph 1013.8mb 51f
12:00am 17 18 mph 1013.6mb 52f
Sun 07/24 11:00pm 22 24 mph 1013.3mb 53f
10:00pm 23 24 mph 1013.1mb 53f
9:00pm 22 23 mph 1012.9mb 53f
8:00pm 21 23 mph 1012.8mb 54f
7:00pm 18 20 mph 1013.1mb 55f
6:00pm 16 17 mph 1013.3mb 55f
5:00pm 13
mph
1013.8mb 55f
4:00pm 9
mph
1014.2mb 55f
3:00pm 5 6 mph 1014.6mb 56f
2:00pm 5 6 mph 1014.7mb 56f
1:00pm 5 6 mph 1014.5mb 55f
12:00pm 9 10 mph 1014.2mb 54f
11:00am 14
mph
1013.6mb 53f
10:00am 15
mph
1013.2mb 53f
9:00am 13 14 mph 1013mb 53f
8:00am 13 14 mph 1012.5mb 54f
7:00am 10 11 mph 1011.7mb 53f
6:00am 11 13 mph 1011.1mb 53f
5:00am 14 15 mph 1010.7mb 54f
4:00am 14 15 mph 1010.6mb 55f
3:00am 14 15 mph 1010.6mb 55f
2:00am 11 14 mph 1010.7mb 55f
1:00am 10 11 mph 1011mb 55f
12:00am 8 9 mph 1011.3mb 55f
Sat 07/23 11:00pm 13 15 mph 1011mb 55f
10:00pm 22 24 mph 1010.5mb 56f
9:00pm 30 32 mph 1009.7mb 56f
8:00pm 29 33 mph 1009.4mb 57f
7:00pm 32 36 mph 1009mb 58f
6:00pm 28 30 mph 1009.4mb 58f
5:00pm 23 26 mph 1010.2mb 58f
4:00pm 26 30 mph 1010.4mb 58f
3:00pm 28 31 mph 1010.6mb 58f
2:00pm 26 29 mph 1011.4mb 58f
1:00pm 26 29 mph 1012.2mb 58f
12:00pm 21 23 mph 1012.4mb 58f
11:00am 18 22 mph 1013mb 58f
10:00am 22 25 mph 1012.7mb 57f
9:00am 20 23 mph 1012.7mb 56f
8:00am 23 26 mph 1012.4mb 55f
7:00am 23 25 mph 1012.3mb 55f
6:00am 22 24 mph 1012.3mb 55f
5:00am 24 28 mph 1012.1mb 55f
4:00am 24 26 mph 1012.3mb 55f
3:00am 25 28 mph 1012.7mb 55f
2:00am 24 26 mph 1013.1mb 55f
1:00am 26 29 mph 1013.7mb 56f
12:00am 26 29 mph 1014.4mb 56f
Fri 07/22 11:00pm 23 26 mph 1014.8mb 57f
10:00pm 24 28 mph 1015.2mb 58f
9:00pm 22 25 mph 1014.8mb 59f
8:00pm 24 28 mph 1014.5mb 59f
7:00pm 23 26 mph 1014.4mb 59f
6:00pm 23 26 mph 1014.6mb 59f
5:00pm 23 26 mph 1015mb 59f
4:00pm 25 29 mph 1015.3mb 59f
3:00pm 25 28 mph 1015.7mb 58f
2:00pm 25 28 mph 1016.4mb 58f
1:00pm 26 28 mph 1017mb 58f
12:00pm 25 28 mph 1017.2mb 58f
11:00am 24 28 mph 1017mb 58f
10:00am 25 30 mph 1016.8mb 59f
9:00am 24 26 mph 1016.5mb 58f
8:00am 23 28 mph 1016.2mb 57f
7:00am 22 24 mph 1015.6mb 57f
6:00am 24 26 mph 1015.3mb 56f
5:00am 23 26 mph 1014.9mb 56f
4:00am 24 25 mph 1014.9mb 55f
3:00am 24 25 mph 1015.1mb 55f
2:00am 24 25 mph 1015.6mb 56f
1:00am 25 29 mph 1016mb 56f
12:00am 26 30 mph 1016.6mb 57f
Thu 07/21 11:00pm 30 32 mph 1016.8mb 57f
10:00pm 30 32 mph 1016.9mb 58f
9:00pm 29 33 mph 1016.5mb 58f
8:00pm 29 32 mph 1016.2mb 59f
7:00pm 29 31 mph 1016mb 60f
6:00pm 29 31 mph 1016.1mb 60f
5:00pm 29 32 mph 1016.6mb 59f